createdAt,value
2023-01-19T00:00:44.662Z,5.68
2023-01-19T00:06:08.377Z,5.67
2023-01-19T00:11:12.826Z,5.65
2023-01-19T00:16:20.046Z,5.62
2023-01-19T00:21:23.516Z,5.56
2023-01-19T00:26:26.528Z,5.55
2023-01-19T00:31:30.248Z,5.55
2023-01-19T00:36:33.996Z,5.45
2023-01-19T00:41:55.512Z,5.35
2023-01-19T00:46:58.520Z,5.22
2023-01-19T00:52:01.745Z,5.21
2023-01-19T00:57:05.147Z,5.14
2023-01-19T01:02:08.661Z,5.17
2023-01-19T01:07:11.874Z,5.15
2023-01-19T01:12:14.983Z,5.11
2023-01-19T01:17:18.278Z,5.09
2023-01-19T01:22:21.196Z,5.03
2023-01-19T01:27:24.107Z,4.95
2023-01-19T01:32:27.108Z,4.97
2023-01-19T01:37:30.112Z,5.02
2023-01-19T01:42:34.698Z,5.07
2023-01-19T01:47:47.802Z,5.05
2023-01-19T01:53:14.116Z,5.05
2023-01-19T01:58:17.433Z,5.04
2023-01-19T02:03:23.459Z,5.15
2023-01-19T02:09:37.622Z,5.18
2023-01-19T02:14:40.623Z,5.22
2023-01-19T02:19:44.015Z,5.21
2023-01-19T02:24:47.265Z,5.23
2023-01-19T02:29:50.269Z,5.32
2023-01-19T02:34:53.575Z,5.37
2023-01-19T02:39:59.347Z,5.42
2023-01-19T02:45:06.881Z,5.44
2023-01-19T02:50:29.559Z,5.47
2023-01-19T02:55:34.340Z,5.55
2023-01-19T03:00:48.086Z,5.51
2023-01-19T03:05:57.149Z,5.38
2023-01-19T03:11:08.388Z,5.33
2023-01-19T03:16:34.548Z,5.25
2023-01-19T03:21:40.716Z,5.23
2023-01-19T03:26:49.349Z,5.26
2023-01-19T03:31:54.140Z,5.25
2023-01-19T03:37:02.491Z,5.15
2023-01-19T03:42:09.636Z,5.16
2023-01-19T03:47:15.134Z,5.14
2023-01-19T03:52:18.102Z,5.11
2023-01-19T03:57:21.417Z,5.07
2023-01-19T04:02:25.182Z,4.97
2023-01-19T04:07:28.650Z,4.80
2023-01-19T04:12:31.768Z,4.67
2023-01-19T04:17:34.873Z,4.58
2023-01-19T04:22:39.317Z,4.49
2023-01-19T04:27:42.417Z,4.42
2023-01-19T04:32:45.629Z,4.40
2023-01-19T04:37:48.749Z,4.42
2023-01-19T04:42:51.847Z,4.57
2023-01-19T04:47:54.955Z,4.67
2023-01-19T04:52:58.477Z,4.71
2023-01-19T04:58:01.705Z,4.70
2023-01-19T05:03:05.396Z,4.60
2023-01-19T05:08:08.828Z,4.60
2023-01-19T05:13:11.831Z,4.72
2023-01-19T05:18:14.835Z,4.77
2023-01-19T05:23:18.052Z,4.80
2023-01-19T05:28:21.873Z,4.82
2023-01-19T05:33:25.597Z,4.86
2023-01-19T05:38:35.390Z,4.88
2023-01-19T05:43:38.882Z,4.83
2023-01-19T05:48:41.784Z,4.75
2023-01-19T05:53:44.994Z,4.67
2023-01-19T05:58:48.101Z,4.63
2023-01-19T06:03:51.211Z,4.49
2023-01-19T06:08:54.636Z,4.37
2023-01-19T06:13:57.747Z,4.30
2023-01-19T06:19:00.742Z,4.36
2023-01-19T06:24:04.362Z,4.35
2023-01-19T06:29:07.275Z,4.22
2023-01-19T06:34:10.954Z,4.02
2023-01-19T06:39:13.892Z,3.87
2023-01-19T06:44:17.009Z,3.68
2023-01-19T06:49:20.013Z,3.74
2023-01-19T06:54:23.117Z,3.78
2023-01-19T06:59:26.329Z,3.88
2023-01-19T07:04:29.441Z,4.02
2023-01-19T07:09:32.348Z,3.99
2023-01-19T07:14:35.355Z,3.98
2023-01-19T07:19:38.353Z,4.02
2023-01-19T07:24:41.685Z,4.18
2023-01-19T07:29:44.676Z,4.19
2023-01-19T07:34:47.889Z,4.32
2023-01-19T07:39:50.997Z,4.26
2023-01-19T07:44:54.103Z,4.20
2023-01-19T07:49:57.166Z,4.07
2023-01-19T07:55:00.037Z,4.06
2023-01-19T08:00:05.124Z,4.10
2023-01-19T08:05:08.677Z,4.00
2023-01-19T08:10:13.624Z,3.89
2023-01-19T08:15:16.684Z,4.03
2023-01-19T08:20:19.662Z,4.13
2023-01-19T08:25:23.690Z,4.23
2023-01-19T08:30:27.074Z,4.35
2023-01-19T08:35:43.455Z,4.54
2023-01-19T08:40:46.948Z,4.66
2023-01-19T08:45:53.451Z,4.78
2023-01-19T08:50:57.187Z,4.73
2023-01-19T08:56:01.485Z,4.79
2023-01-19T09:01:05.457Z,4.97
2023-01-19T09:06:10.364Z,5.02
2023-01-19T09:11:15.118Z,5.07
2023-01-19T09:16:18.460Z,5.07
2023-01-19T09:21:21.644Z,5.06
2023-01-19T09:26:24.754Z,5.12
2023-01-19T09:31:27.858Z,5.18
2023-01-19T09:36:31.170Z,5.33
2023-01-19T09:41:36.847Z,5.53
2023-01-19T09:46:44.516Z,5.74
2023-01-19T09:51:50.646Z,5.89
2023-01-19T09:56:54.354Z,5.88
2023-01-19T10:02:33.522Z,5.86
2023-01-19T10:07:54.946Z,5.92
2023-01-19T10:13:19.768Z,6.03
2023-01-19T10:18:48.783Z,6.13
2023-01-19T10:23:54.845Z,6.15
2023-01-19T10:29:03.086Z,6.16
2023-01-19T10:34:06.126Z,6.06
2023-01-19T10:39:13.853Z,5.93
2023-01-19T10:44:25.677Z,5.90
2023-01-19T10:49:39.286Z,5.85
2023-01-19T10:54:43.806Z,5.90
2023-01-19T10:59:51.154Z,6.02
2023-01-19T11:04:57.251Z,6.17
2023-01-19T11:10:25.943Z,6.36
2023-01-19T11:15:35.955Z,6.51
2023-01-19T11:20:51.355Z,6.38
2023-01-19T11:25:58.398Z,6.25
2023-01-19T11:31:10.362Z,6.21
2023-01-19T11:36:39.831Z,6.25
2023-01-19T11:41:43.048Z,6.32
2023-01-19T11:46:51.147Z,6.37
2023-01-19T11:52:07.087Z,6.26
2023-01-19T11:57:13.877Z,6.31
2023-01-19T12:02:45.057Z,6.16
2023-01-19T12:07:50.306Z,6.08
2023-01-19T12:12:54.438Z,6.14
2023-01-19T12:18:00.810Z,6.13
2023-01-19T12:23:03.942Z,6.05
2023-01-19T12:28:12.974Z,6.20
2023-01-19T12:33:33.603Z,6.33
2023-01-19T12:38:55.039Z,6.22
2023-01-19T12:44:10.036Z,6.20
2023-01-19T12:49:37.806Z,6.31
2023-01-19T12:54:50.402Z,6.40
2023-01-19T13:00:02.255Z,6.40
2023-01-19T13:05:25.726Z,6.38
2023-01-19T13:10:59.878Z,6.36
2023-01-19T13:16:30.019Z,6.29
2023-01-19T13:21:47.566Z,6.19
2023-01-19T13:26:50.677Z,6.13
2023-01-19T13:32:02.615Z,6.10
2023-01-19T13:37:06.639Z,6.02
2023-01-19T13:42:28.865Z,5.95
2023-01-19T13:47:39.284Z,5.87
2023-01-19T13:52:43.491Z,5.79
2023-01-19T13:57:49.061Z,5.76
2023-01-19T14:03:10.991Z,5.72
2023-01-19T14:08:15.779Z,5.66
2023-01-19T14:13:20.197Z,5.59
2023-01-19T14:18:31.576Z,5.52
2023-01-19T14:23:51.705Z,5.37
2023-01-19T14:28:54.916Z,5.45
2023-01-19T14:33:58.739Z,5.40
2023-01-19T14:39:03.234Z,5.26
2023-01-19T14:44:20.047Z,5.19
2023-01-19T14:49:34.098Z,5.22
2023-01-19T14:54:43.029Z,5.21
2023-01-19T14:59:49.846Z,5.25
2023-01-19T15:04:55.527Z,5.23
2023-01-19T15:09:59.492Z,5.19
2023-01-19T15:15:02.792Z,5.17
2023-01-19T15:20:13.721Z,5.18
2023-01-19T15:25:19.796Z,5.21
2023-01-19T15:30:29.757Z,5.23
2023-01-19T15:35:32.880Z,5.20
2023-01-19T15:40:35.990Z,5.20
2023-01-19T15:45:55.304Z,5.19
2023-01-19T15:50:58.382Z,5.19
2023-01-19T15:56:01.394Z,5.26
2023-01-19T16:01:04.849Z,5.35
2023-01-19T16:06:08.853Z,5.34
2023-01-19T16:11:14.919Z,5.46
2023-01-19T16:16:20.978Z,5.49
2023-01-19T16:21:24.398Z,5.50
2023-01-19T16:26:27.557Z,5.52
2023-01-19T16:31:30.638Z,5.49
2023-01-19T16:36:35.900Z,5.56
2023-01-19T16:41:39.307Z,5.49
2023-01-19T16:46:44.867Z,5.40
2023-01-19T16:51:49.094Z,5.38
2023-01-19T16:56:53.340Z,5.29
2023-01-19T17:01:57.191Z,5.26
2023-01-19T17:07:00.378Z,5.16
2023-01-19T17:12:04.264Z,5.23
2023-01-19T17:17:09.956Z,5.25
2023-01-19T17:22:14.391Z,5.27
2023-01-19T17:27:17.514Z,5.29
2023-01-19T17:32:20.428Z,5.26
2023-01-19T17:37:23.430Z,5.14
2023-01-19T17:42:26.747Z,5.12
2023-01-19T17:47:29.850Z,4.99
2023-01-19T17:52:33.077Z,4.99
2023-01-19T17:57:36.648Z,5.00
2023-01-19T18:02:40.486Z,4.96
2023-01-19T18:07:43.716Z,4.98
2023-01-19T18:12:46.628Z,4.98
2023-01-19T18:17:49.628Z,5.04
2023-01-19T18:22:52.737Z,5.07
2023-01-19T18:27:55.641Z,5.10
2023-01-19T18:32:58.655Z,5.12
2023-01-19T18:38:01.661Z,5.14
2023-01-19T18:43:04.767Z,5.25
2023-01-19T18:48:08.166Z,5.41
2023-01-19T18:53:11.088Z,5.52
2023-01-19T18:58:14.096Z,5.61
2023-01-19T19:03:17.870Z,5.62
2023-01-19T19:08:20.825Z,5.62
2023-01-19T19:13:23.823Z,5.56
2023-01-19T19:18:26.832Z,5.41
2023-01-19T19:23:29.843Z,5.31
2023-01-19T19:28:33.627Z,5.22
2023-01-19T19:33:38.519Z,5.24
2023-01-19T19:38:43.072Z,5.29
2023-01-19T19:43:46.169Z,5.31
2023-01-19T19:48:49.818Z,5.39
2023-01-19T19:53:55.356Z,5.42
2023-01-19T19:58:59.661Z,5.43
2023-01-19T20:04:08.919Z,5.39
2023-01-19T20:09:14.149Z,5.34
2023-01-19T20:14:17.303Z,5.31
2023-01-19T20:19:20.389Z,5.09
2023-01-19T20:24:23.527Z,4.91
2023-01-19T20:29:26.643Z,4.80
2023-01-19T20:34:33.357Z,4.73
2023-01-19T20:39:37.366Z,4.54
2023-01-19T20:44:40.473Z,4.62
2023-01-19T20:49:43.685Z,4.66
2023-01-19T20:54:46.903Z,4.63
2023-01-19T20:59:50.125Z,4.47
2023-01-19T21:04:54.859Z,4.34
2023-01-19T21:09:58.557Z,4.30
2023-01-19T21:15:02.319Z,4.46
2023-01-19T21:20:06.644Z,4.53
2023-01-19T21:25:10.183Z,4.49
2023-01-19T21:30:13.471Z,4.53
2023-01-19T21:35:16.796Z,4.63
2023-01-19T21:40:19.908Z,4.74
2023-01-19T21:45:23.332Z,4.79
2023-01-19T21:50:26.529Z,4.97
2023-01-19T21:55:30.159Z,5.22
2023-01-19T22:00:33.251Z,5.44
2023-01-19T22:05:37.205Z,5.58
2023-01-19T22:10:40.155Z,5.67
2023-01-19T22:15:43.090Z,5.71
2023-01-19T22:20:46.095Z,5.80
2023-01-19T22:25:49.328Z,5.81
2023-01-19T22:30:52.638Z,5.77
2023-01-19T22:35:55.725Z,5.72
2023-01-19T22:40:58.732Z,5.70
2023-01-19T22:46:02.482Z,5.65
2023-01-19T22:51:06.805Z,5.75
2023-01-19T22:56:11.617Z,5.81
2023-01-19T23:01:22.929Z,5.78
2023-01-19T23:06:28.823Z,5.65
2023-01-19T23:11:43.907Z,5.60
2023-01-19T23:16:47.521Z,5.67
2023-01-19T23:21:53.039Z,5.76
2023-01-19T23:26:55.997Z,5.85
2023-01-19T23:31:59.211Z,5.90
2023-01-19T23:37:02.319Z,5.90
2023-01-19T23:42:06.554Z,5.85
2023-01-19T23:47:09.760Z,5.77
2023-01-19T23:52:12.973Z,5.47
2023-01-19T23:57:15.982Z,5.40
